sensor_id;sensor_type;location;lat;lon;timestamp;P1;durP1;ratioP1;P2;durP2;ratioP2
75209;SDS011;63796;53.136;14.882;2023-04-28T00:00:55;6.20;;;2.50;;
75209;SDS011;63796;53.136;14.882;2023-04-28T00:03:22;6.50;;;2.70;;
75209;SDS011;63796;53.136;14.882;2023-04-28T00:05:51;7.40;;;3.40;;
75209;SDS011;63796;53.136;14.882;2023-04-28T00:08:19;11.70;;;4.10;;
75209;SDS011;63796;53.136;14.882;2023-04-28T00:10:48;15.80;;;5.20;;
75209;SDS011;63796;53.136;14.882;2023-04-28T00:13:15;14.40;;;5.00;;
75209;SDS011;63796;53.136;14.882;2023-04-28T00:15:43;17.50;;;5.40;;
75209;SDS011;63796;53.136;14.882;2023-04-28T00:18:10;19.60;;;6.30;;
75209;SDS011;63796;53.136;14.882;2023-04-28T00:20:37;19.30;;;6.70;;
75209;SDS011;63796;53.136;14.882;2023-04-28T00:23:05;14.40;;;5.30;;
75209;SDS011;63796;53.136;14.882;2023-04-28T00:25:32;16.60;;;5.70;;
75209;SDS011;63796;53.136;14.882;2023-04-28T00:27:59;13.20;;;5.20;;
75209;SDS011;63796;53.136;14.882;2023-04-28T00:30:29;12.20;;;4.90;;
75209;SDS011;63796;53.136;14.882;2023-04-28T00:32:56;15.80;;;5.60;;
75209;SDS011;63796;53.136;14.882;2023-04-28T00:35:24;12.20;;;5.30;;
75209;SDS011;63796;53.136;14.882;2023-04-28T00:37:51;10.80;;;4.30;;
75209;SDS011;63796;53.136;14.882;2023-04-28T00:40:19;13.10;;;4.80;;
75209;SDS011;63796;53.136;14.882;2023-04-28T00:42:47;10.40;;;4.00;;
75209;SDS011;63796;53.136;14.882;2023-04-28T00:45:14;14.30;;;4.40;;
75209;SDS011;63796;53.136;14.882;2023-04-28T00:47:42;11.80;;;4.00;;
75209;SDS011;63796;53.136;14.882;2023-04-28T00:50:09;9.50;;;4.50;;
75209;SDS011;63796;53.136;14.882;2023-04-28T00:52:37;9.10;;;4.30;;
75209;SDS011;63796;53.136;14.882;2023-04-28T00:55:06;10.80;;;4.20;;
75209;SDS011;63796;53.136;14.882;2023-04-28T00:57:35;11.80;;;5.10;;
75209;SDS011;63796;53.136;14.882;2023-04-28T01:00:02;10.90;;;3.80;;
75209;SDS011;63796;53.136;14.882;2023-04-28T01:02:31;11.70;;;3.90;;
75209;SDS011;63796;53.136;14.882;2023-04-28T01:04:59;10.50;;;4.00;;
75209;SDS011;63796;53.136;14.882;2023-04-28T01:07:27;9.90;;;4.60;;
75209;SDS011;63796;53.136;14.882;2023-04-28T01:09:55;9.50;;;3.50;;
75209;SDS011;63796;53.136;14.882;2023-04-28T01:12:22;9.00;;;3.60;;
75209;SDS011;63796;53.136;14.882;2023-04-28T01:14:50;8.40;;;3.50;;
75209;SDS011;63796;53.136;14.882;2023-04-28T01:17:18;10.30;;;3.90;;
75209;SDS011;63796;53.136;14.882;2023-04-28T01:19:45;12.40;;;3.80;;
75209;SDS011;63796;53.136;14.882;2023-04-28T01:22:12;8.50;;;4.20;;
75209;SDS011;63796;53.136;14.882;2023-04-28T01:24:42;8.40;;;3.40;;
75209;SDS011;63796;53.136;14.882;2023-04-28T01:27:09;11.30;;;3.70;;
75209;SDS011;63796;53.136;14.882;2023-04-28T01:29:37;7.80;;;3.70;;
75209;SDS011;63796;53.136;14.882;2023-04-28T01:32:05;10.70;;;3.70;;
75209;SDS011;63796;53.136;14.882;2023-04-28T01:34:32;12.30;;;3.80;;
75209;SDS011;63796;53.136;14.882;2023-04-28T01:36:59;10.60;;;3.90;;
75209;SDS011;63796;53.136;14.882;2023-04-28T01:39:27;9.80;;;3.50;;
75209;SDS011;63796;53.136;14.882;2023-04-28T01:41:54;10.40;;;3.90;;
75209;SDS011;63796;53.136;14.882;2023-04-28T01:44:21;7.90;;;3.20;;
75209;SDS011;63796;53.136;14.882;2023-04-28T01:46:49;9.70;;;3.80;;
75209;SDS011;63796;53.136;14.882;2023-04-28T01:49:16;13.00;;;4.70;;
75209;SDS011;63796;53.136;14.882;2023-04-28T01:51:44;15.50;;;4.90;;
75209;SDS011;63796;53.136;14.882;2023-04-28T01:54:11;14.40;;;6.00;;
75209;SDS011;63796;53.136;14.882;2023-04-28T01:56:39;12.50;;;5.50;;
75209;SDS011;63796;53.136;14.882;2023-04-28T01:59:07;11.50;;;4.00;;
75209;SDS011;63796;53.136;14.882;2023-04-28T02:01:34;9.90;;;4.00;;
75209;SDS011;63796;53.136;14.882;2023-04-28T02:04:01;9.60;;;4.00;;
75209;SDS011;63796;53.136;14.882;2023-04-28T02:06:30;9.30;;;4.10;;
75209;SDS011;63796;53.136;14.882;2023-04-28T02:08:57;8.60;;;3.80;;
75209;SDS011;63796;53.136;14.882;2023-04-28T02:11:25;11.70;;;3.60;;
75209;SDS011;63796;53.136;14.882;2023-04-28T02:13:52;7.10;;;3.40;;
75209;SDS011;63796;53.136;14.882;2023-04-28T02:16:19;9.90;;;4.30;;
75209;SDS011;63796;53.136;14.882;2023-04-28T02:18:47;11.20;;;3.90;;
75209;SDS011;63796;53.136;14.882;2023-04-28T02:21:14;9.40;;;4.40;;
75209;SDS011;63796;53.136;14.882;2023-04-28T02:23:42;8.80;;;4.00;;
75209;SDS011;63796;53.136;14.882;2023-04-28T02:26:09;10.60;;;4.00;;
75209;SDS011;63796;53.136;14.882;2023-04-28T02:28:36;9.80;;;4.50;;
75209;SDS011;63796;53.136;14.882;2023-04-28T02:31:05;7.70;;;4.10;;
75209;SDS011;63796;53.136;14.882;2023-04-28T02:33:33;11.00;;;4.00;;
75209;SDS011;63796;53.136;14.882;2023-04-28T02:36:01;8.60;;;4.00;;
75209;SDS011;63796;53.136;14.882;2023-04-28T02:38:29;9.70;;;3.70;;
75209;SDS011;63796;53.136;14.882;2023-04-28T02:41:04;9.10;;;3.80;;
75209;SDS011;63796;53.136;14.882;2023-04-28T02:43:32;11.10;;;3.40;;
75209;SDS011;63796;53.136;14.882;2023-04-28T02:46:01;9.30;;;3.50;;
75209;SDS011;63796;53.136;14.882;2023-04-28T02:48:29;9.20;;;3.80;;
75209;SDS011;63796;53.136;14.882;2023-04-28T02:50:57;12.80;;;4.00;;
75209;SDS011;63796;53.136;14.882;2023-04-28T02:53:24;7.70;;;4.00;;
75209;SDS011;63796;53.136;14.882;2023-04-28T02:55:52;6.00;;;3.60;;
75209;SDS011;63796;53.136;14.882;2023-04-28T02:58:20;10.40;;;3.90;;
75209;SDS011;63796;53.136;14.882;2023-04-28T03:00:47;7.80;;;3.70;;
75209;SDS011;63796;53.136;14.882;2023-04-28T03:03:15;7.80;;;3.10;;
75209;SDS011;63796;53.136;14.882;2023-04-28T03:05:43;6.90;;;3.50;;
75209;SDS011;63796;53.136;14.882;2023-04-28T03:08:10;7.60;;;3.60;;
75209;SDS011;63796;53.136;14.882;2023-04-28T03:10:37;6.30;;;3.30;;
75209;SDS011;63796;53.136;14.882;2023-04-28T03:13:05;9.70;;;4.00;;
75209;SDS011;63796;53.136;14.882;2023-04-28T03:15:32;7.10;;;3.20;;
75209;SDS011;63796;53.136;14.882;2023-04-28T03:17:59;7.60;;;3.40;;
75209;SDS011;63796;53.136;14.882;2023-04-28T03:20:27;10.40;;;3.60;;
75209;SDS011;63796;53.136;14.882;2023-04-28T03:22:54;9.10;;;3.00;;
75209;SDS011;63796;53.136;14.882;2023-04-28T03:25:22;11.70;;;3.50;;
75209;SDS011;63796;53.136;14.882;2023-04-28T03:27:49;9.20;;;3.40;;
75209;SDS011;63796;53.136;14.882;2023-04-28T03:30:17;9.20;;;3.40;;
75209;SDS011;63796;53.136;14.882;2023-04-28T03:32:44;8.20;;;2.90;;
75209;SDS011;63796;53.136;14.882;2023-04-28T03:35:11;7.30;;;3.10;;
75209;SDS011;63796;53.136;14.882;2023-04-28T03:37:38;6.70;;;3.30;;
75209;SDS011;63796;53.136;14.882;2023-04-28T03:40:07;7.50;;;3.50;;
75209;SDS011;63796;53.136;14.882;2023-04-28T03:42:34;7.90;;;3.40;;
75209;SDS011;63796;53.136;14.882;2023-04-28T03:45:01;8.10;;;3.00;;
75209;SDS011;63796;53.136;14.882;2023-04-28T03:47:29;7.70;;;3.40;;
75209;SDS011;63796;53.136;14.882;2023-04-28T03:49:56;7.90;;;3.60;;
75209;SDS011;63796;53.136;14.882;2023-04-28T03:52:25;9.00;;;3.90;;
75209;SDS011;63796;53.136;14.882;2023-04-28T03:54:53;10.80;;;4.20;;
75209;SDS011;63796;53.136;14.882;2023-04-28T03:57:20;18.50;;;5.00;;
75209;SDS011;63796;53.136;14.882;2023-04-28T03:59:48;10.90;;;4.60;;
75209;SDS011;63796;53.136;14.882;2023-04-28T04:02:15;12.10;;;4.00;;
75209;SDS011;63796;53.136;14.882;2023-04-28T04:04:42;13.00;;;5.50;;
75209;SDS011;63796;53.136;14.882;2023-04-28T04:07:10;8.20;;;4.60;;
75209;SDS011;63796;53.136;14.882;2023-04-28T04:09:37;12.90;;;5.10;;
75209;SDS011;63796;53.136;14.882;2023-04-28T04:12:05;12.60;;;4.90;;
75209;SDS011;63796;53.136;14.882;2023-04-28T04:14:32;12.30;;;5.00;;
75209;SDS011;63796;53.136;14.882;2023-04-28T04:17:00;11.60;;;5.20;;
75209;SDS011;63796;53.136;14.882;2023-04-28T04:19:28;13.20;;;5.60;;
75209;SDS011;63796;53.136;14.882;2023-04-28T04:21:55;15.70;;;5.50;;
75209;SDS011;63796;53.136;14.882;2023-04-28T04:24:22;12.20;;;4.90;;
75209;SDS011;63796;53.136;14.882;2023-04-28T04:26:50;9.70;;;4.30;;
75209;SDS011;63796;53.136;14.882;2023-04-28T04:29:17;9.90;;;4.50;;
75209;SDS011;63796;53.136;14.882;2023-04-28T04:31:45;9.40;;;4.40;;
75209;SDS011;63796;53.136;14.882;2023-04-28T04:34:12;8.60;;;3.70;;
75209;SDS011;63796;53.136;14.882;2023-04-28T04:36:40;10.90;;;4.40;;
75209;SDS011;63796;53.136;14.882;2023-04-28T04:39:07;8.20;;;3.70;;
75209;SDS011;63796;53.136;14.882;2023-04-28T04:41:35;11.00;;;3.80;;
75209;SDS011;63796;53.136;14.882;2023-04-28T04:44:02;13.40;;;5.00;;
75209;SDS011;63796;53.136;14.882;2023-04-28T04:46:30;11.50;;;5.60;;
75209;SDS011;63796;53.136;14.882;2023-04-28T04:48:58;7.50;;;4.30;;
75209;SDS011;63796;53.136;14.882;2023-04-28T04:51:25;13.10;;;4.80;;
75209;SDS011;63796;53.136;14.882;2023-04-28T04:53:54;12.00;;;4.50;;
75209;SDS011;63796;53.136;14.882;2023-04-28T04:56:21;11.90;;;4.30;;
75209;SDS011;63796;53.136;14.882;2023-04-28T04:58:51;12.10;;;4.50;;
75209;SDS011;63796;53.136;14.882;2023-04-28T05:01:18;7.40;;;4.20;;
75209;SDS011;63796;53.136;14.882;2023-04-28T05:03:46;6.40;;;3.60;;
75209;SDS011;63796;53.136;14.882;2023-04-28T05:06:13;6.80;;;3.70;;
75209;SDS011;63796;53.136;14.882;2023-04-28T05:08:41;8.80;;;4.30;;
75209;SDS011;63796;53.136;14.882;2023-04-28T05:11:08;9.30;;;3.60;;
75209;SDS011;63796;53.136;14.882;2023-04-28T05:13:36;8.30;;;3.40;;
75209;SDS011;63796;53.136;14.882;2023-04-28T05:16:03;6.20;;;3.20;;
75209;SDS011;63796;53.136;14.882;2023-04-28T05:18:31;6.50;;;3.20;;
75209;SDS011;63796;53.136;14.882;2023-04-28T05:20:58;10.80;;;4.00;;
75209;SDS011;63796;53.136;14.882;2023-04-28T05:23:26;10.80;;;4.00;;
75209;SDS011;63796;53.136;14.882;2023-04-28T05:25:53;6.00;;;3.10;;
75209;SDS011;63796;53.136;14.882;2023-04-28T05:28:20;7.60;;;2.90;;
75209;SDS011;63796;53.136;14.882;2023-04-28T05:30:48;6.70;;;3.10;;
75209;SDS011;63796;53.136;14.882;2023-04-28T05:33:15;9.50;;;3.70;;
75209;SDS011;63796;53.136;14.882;2023-04-28T05:35:43;8.20;;;2.90;;
75209;SDS011;63796;53.136;14.882;2023-04-28T05:38:10;4.50;;;2.40;;
75209;SDS011;63796;53.136;14.882;2023-04-28T05:40:38;8.20;;;2.90;;
75209;SDS011;63796;53.136;14.882;2023-04-28T05:43:05;7.60;;;2.60;;
75209;SDS011;63796;53.136;14.882;2023-04-28T05:45:33;6.60;;;2.70;;
75209;SDS011;63796;53.136;14.882;2023-04-28T05:48:01;7.50;;;3.10;;
75209;SDS011;63796;53.136;14.882;2023-04-28T05:50:28;8.20;;;2.50;;
75209;SDS011;63796;53.136;14.882;2023-04-28T05:52:55;6.30;;;2.80;;
75209;SDS011;63796;53.136;14.882;2023-04-28T05:55:23;3.90;;;2.40;;
75209;SDS011;63796;53.136;14.882;2023-04-28T05:57:52;7.30;;;2.80;;
75209;SDS011;63796;53.136;14.882;2023-04-28T06:00:19;6.40;;;2.50;;
75209;SDS011;63796;53.136;14.882;2023-04-28T06:02:48;4.80;;;2.40;;
75209;SDS011;63796;53.136;14.882;2023-04-28T06:05:16;6.10;;;2.80;;
75209;SDS011;63796;53.136;14.882;2023-04-28T06:07:44;8.60;;;3.80;;
75209;SDS011;63796;53.136;14.882;2023-04-28T06:10:13;5.90;;;2.90;;
75209;SDS011;63796;53.136;14.882;2023-04-28T06:12:40;5.60;;;2.60;;
75209;SDS011;63796;53.136;14.882;2023-04-28T06:15:08;5.90;;;2.40;;
75209;SDS011;63796;53.136;14.882;2023-04-28T06:17:35;14.20;;;3.20;;
75209;SDS011;63796;53.136;14.882;2023-04-28T06:20:05;5.70;;;2.70;;
75209;SDS011;63796;53.136;14.882;2023-04-28T06:22:32;6.10;;;2.30;;
75209;SDS011;63796;53.136;14.882;2023-04-28T06:25:00;3.60;;;2.10;;
75209;SDS011;63796;53.136;14.882;2023-04-28T06:27:27;7.30;;;2.90;;
75209;SDS011;63796;53.136;14.882;2023-04-28T06:29:58;5.40;;;2.80;;
75209;SDS011;63796;53.136;14.882;2023-04-28T06:32:26;5.30;;;2.80;;
75209;SDS011;63796;53.136;14.882;2023-04-28T06:34:53;9.20;;;3.20;;
75209;SDS011;63796;53.136;14.882;2023-04-28T06:37:23;5.20;;;3.00;;
75209;SDS011;63796;53.136;14.882;2023-04-28T06:39:51;8.90;;;2.60;;
75209;SDS011;63796;53.136;14.882;2023-04-28T06:42:18;2.90;;;2.40;;
75209;SDS011;63796;53.136;14.882;2023-04-28T06:44:46;3.40;;;2.10;;
75209;SDS011;63796;53.136;14.882;2023-04-28T06:47:14;6.60;;;2.40;;
75209;SDS011;63796;53.136;14.882;2023-04-28T06:49:41;4.10;;;2.60;;
75209;SDS011;63796;53.136;14.882;2023-04-28T06:52:10;4.50;;;2.00;;
75209;SDS011;63796;53.136;14.882;2023-04-28T06:54:37;5.90;;;2.10;;
75209;SDS011;63796;53.136;14.882;2023-04-28T06:57:05;4.10;;;2.00;;
75209;SDS011;63796;53.136;14.882;2023-04-28T06:59:32;4.90;;;1.90;;
75209;SDS011;63796;53.136;14.882;2023-04-28T07:02:00;3.50;;;1.60;;
75209;SDS011;63796;53.136;14.882;2023-04-28T07:04:28;3.00;;;1.70;;
75209;SDS011;63796;53.136;14.882;2023-04-28T07:06:56;5.40;;;1.60;;
75209;SDS011;63796;53.136;14.882;2023-04-28T07:09:23;4.00;;;2.00;;
75209;SDS011;63796;53.136;14.882;2023-04-28T07:11:50;7.50;;;2.20;;
75209;SDS011;63796;53.136;14.882;2023-04-28T07:14:18;3.90;;;1.50;;
75209;SDS011;63796;53.136;14.882;2023-04-28T07:16:45;3.40;;;2.00;;
75209;SDS011;63796;53.136;14.882;2023-04-28T07:19:13;4.80;;;2.10;;
75209;SDS011;63796;53.136;14.882;2023-04-28T07:21:40;5.30;;;2.20;;
75209;SDS011;63796;53.136;14.882;2023-04-28T07:24:08;4.50;;;2.20;;
75209;SDS011;63796;53.136;14.882;2023-04-28T07:26:36;5.00;;;2.40;;
75209;SDS011;63796;53.136;14.882;2023-04-28T07:29:03;3.80;;;1.90;;
75209;SDS011;63796;53.136;14.882;2023-04-28T07:31:30;4.30;;;1.90;;
75209;SDS011;63796;53.136;14.882;2023-04-28T07:33:58;5.00;;;2.70;;
75209;SDS011;63796;53.136;14.882;2023-04-28T07:36:25;4.40;;;2.20;;
75209;SDS011;63796;53.136;14.882;2023-04-28T07:38:53;27.00;;;4.10;;
75209;SDS011;63796;53.136;14.882;2023-04-28T07:41:20;10.40;;;2.50;;
75209;SDS011;63796;53.136;14.882;2023-04-28T07:43:48;3.60;;;2.20;;
75209;SDS011;63796;53.136;14.882;2023-04-28T07:46:15;8.10;;;2.40;;
75209;SDS011;63796;53.136;14.882;2023-04-28T07:48:43;4.70;;;1.90;;
75209;SDS011;63796;53.136;14.882;2023-04-28T07:51:10;3.30;;;2.10;;
75209;SDS011;63796;53.136;14.882;2023-04-28T07:53:38;7.50;;;2.10;;
75209;SDS011;63796;53.136;14.882;2023-04-28T07:56:05;2.90;;;2.10;;
75209;SDS011;63796;53.136;14.882;2023-04-28T07:58:33;2.90;;;1.80;;
75209;SDS011;63796;53.136;14.882;2023-04-28T08:01:01;3.40;;;1.80;;
75209;SDS011;63796;53.136;14.882;2023-04-28T08:03:28;5.00;;;2.00;;
75209;SDS011;63796;53.136;14.882;2023-04-28T08:05:57;3.10;;;2.10;;
75209;SDS011;63796;53.136;14.882;2023-04-28T08:08:24;4.90;;;2.10;;
75209;SDS011;63796;53.136;14.882;2023-04-28T08:10:52;3.60;;;1.90;;
75209;SDS011;63796;53.136;14.882;2023-04-28T08:13:20;3.50;;;2.50;;
75209;SDS011;63796;53.136;14.882;2023-04-28T08:15:48;4.90;;;2.50;;
75209;SDS011;63796;53.136;14.882;2023-04-28T08:18:15;3.40;;;2.40;;
75209;SDS011;63796;53.136;14.882;2023-04-28T08:20:43;2.80;;;2.20;;
75209;SDS011;63796;53.136;14.882;2023-04-28T08:23:11;3.90;;;2.30;;
75209;SDS011;63796;53.136;14.882;2023-04-28T08:25:39;4.20;;;2.30;;
75209;SDS011;63796;53.136;14.882;2023-04-28T08:28:06;1.70;;;1.60;;
75209;SDS011;63796;53.136;14.882;2023-04-28T08:30:35;2.90;;;2.00;;
75209;SDS011;63796;53.136;14.882;2023-04-28T08:33:04;3.60;;;1.80;;
75209;SDS011;63796;53.136;14.882;2023-04-28T08:35:33;2.40;;;2.20;;
75209;SDS011;63796;53.136;14.882;2023-04-28T08:38:00;10.20;;;2.50;;
75209;SDS011;63796;53.136;14.882;2023-04-28T08:40:28;4.80;;;2.30;;
75209;SDS011;63796;53.136;14.882;2023-04-28T08:42:59;3.00;;;1.80;;
75209;SDS011;63796;53.136;14.882;2023-04-28T08:45:29;2.80;;;1.90;;
75209;SDS011;63796;53.136;14.882;2023-04-28T08:47:58;3.60;;;2.20;;
75209;SDS011;63796;53.136;14.882;2023-04-28T08:50:30;3.00;;;2.60;;
75209;SDS011;63796;53.136;14.882;2023-04-28T08:52:57;4.10;;;2.10;;
75209;SDS011;63796;53.136;14.882;2023-04-28T08:55:25;3.50;;;1.90;;
75209;SDS011;63796;53.136;14.882;2023-04-28T08:57:53;2.30;;;1.90;;
75209;SDS011;63796;53.136;14.882;2023-04-28T09:00:21;4.50;;;2.20;;
75209;SDS011;63796;53.136;14.882;2023-04-28T09:02:49;2.30;;;2.10;;
75209;SDS011;63796;53.136;14.882;2023-04-28T09:05:16;3.00;;;2.40;;
75209;SDS011;63796;53.136;14.882;2023-04-28T09:07:45;2.40;;;2.20;;
75209;SDS011;63796;53.136;14.882;2023-04-28T09:10:18;2.40;;;2.20;;
75209;SDS011;63796;53.136;14.882;2023-04-28T09:12:47;5.30;;;1.90;;
75209;SDS011;63796;53.136;14.882;2023-04-28T09:15:31;2.90;;;2.10;;
75209;SDS011;63796;53.136;14.882;2023-04-28T09:18:02;6.40;;;1.80;;
75209;SDS011;63796;53.136;14.882;2023-04-28T09:20:31;2.70;;;2.30;;
75209;SDS011;63796;53.136;14.882;2023-04-28T09:23:20;4.00;;;1.80;;
75209;SDS011;63796;53.136;14.882;2023-04-28T09:26:04;3.50;;;2.30;;
75209;SDS011;63796;53.136;14.882;2023-04-28T09:28:34;4.40;;;2.70;;
75209;SDS011;63796;53.136;14.882;2023-04-28T09:31:03;2.40;;;2.20;;
75209;SDS011;63796;53.136;14.882;2023-04-28T09:33:30;3.40;;;2.50;;
75209;SDS011;63796;53.136;14.882;2023-04-28T09:35:58;4.60;;;2.50;;
75209;SDS011;63796;53.136;14.882;2023-04-28T09:38:25;3.50;;;2.40;;
75209;SDS011;63796;53.136;14.882;2023-04-28T09:43:30;2.40;;;2.20;;
75209;SDS011;63796;53.136;14.882;2023-04-28T09:45:59;2.50;;;2.30;;
75209;SDS011;63796;53.136;14.882;2023-04-28T09:48:32;3.80;;;2.20;;
75209;SDS011;63796;53.136;14.882;2023-04-28T09:51:04;4.70;;;2.40;;
75209;SDS011;63796;53.136;14.882;2023-04-28T09:53:32;12.20;;;3.40;;
75209;SDS011;63796;53.136;14.882;2023-04-28T09:56:02;3.30;;;2.80;;
75209;SDS011;63796;53.136;14.882;2023-04-28T09:58:33;2.90;;;2.60;;
75209;SDS011;63796;53.136;14.882;2023-04-28T10:01:02;2.70;;;2.50;;
75209;SDS011;63796;53.136;14.882;2023-04-28T10:03:31;2.40;;;2.20;;
75209;SDS011;63796;53.136;14.882;2023-04-28T10:05:58;2.80;;;2.50;;
75209;SDS011;63796;53.136;14.882;2023-04-28T10:08:26;6.70;;;2.60;;
75209;SDS011;63796;53.136;14.882;2023-04-28T10:10:54;3.30;;;2.50;;
75209;SDS011;63796;53.136;14.882;2023-04-28T10:13:23;4.50;;;2.20;;
75209;SDS011;63796;53.136;14.882;2023-04-28T10:15:51;2.80;;;2.40;;
75209;SDS011;63796;53.136;14.882;2023-04-28T10:18:22;2.30;;;2.20;;
75209;SDS011;63796;53.136;14.882;2023-04-28T10:21:01;3.80;;;2.50;;
75209;SDS011;63796;53.136;14.882;2023-04-28T10:25:58;3.70;;;2.80;;
75209;SDS011;63796;53.136;14.882;2023-04-28T10:28:26;4.40;;;2.90;;
75209;SDS011;63796;53.136;14.882;2023-04-28T10:33:40;13.20;;;3.30;;
75209;SDS011;63796;53.136;14.882;2023-04-28T10:36:09;5.30;;;3.10;;
75209;SDS011;63796;53.136;14.882;2023-04-28T10:39:18;3.20;;;2.90;;
75209;SDS011;63796;53.136;14.882;2023-04-28T10:41:45;3.30;;;3.00;;
75209;SDS011;63796;53.136;14.882;2023-04-28T10:47:00;3.60;;;3.30;;
75209;SDS011;63796;53.136;14.882;2023-04-28T10:55:25;3.40;;;3.20;;
75209;SDS011;63796;53.136;14.882;2023-04-28T11:00:43;11.40;;;2.90;;
75209;SDS011;63796;53.136;14.882;2023-04-28T11:03:50;3.60;;;2.90;;
75209;SDS011;63796;53.136;14.882;2023-04-28T11:09:45;3.00;;;2.70;;
75209;SDS011;63796;53.136;14.882;2023-04-28T11:14:36;3.70;;;2.50;;
75209;SDS011;63796;53.136;14.882;2023-04-28T11:17:08;3.40;;;2.20;;
75209;SDS011;63796;53.136;14.882;2023-04-28T11:19:42;3.10;;;2.10;;
75209;SDS011;63796;53.136;14.882;2023-04-28T11:22:16;3.70;;;2.20;;
75209;SDS011;63796;53.136;14.882;2023-04-28T11:25:00;3.70;;;2.30;;
75209;SDS011;63796;53.136;14.882;2023-04-28T11:27:30;11.00;;;2.30;;
75209;SDS011;63796;53.136;14.882;2023-04-28T11:29:58;3.30;;;1.90;;
75209;SDS011;63796;53.136;14.882;2023-04-28T11:32:30;2.20;;;2.00;;
75209;SDS011;63796;53.136;14.882;2023-04-28T11:34:58;2.90;;;2.30;;
75209;SDS011;63796;53.136;14.882;2023-04-28T11:37:25;4.80;;;2.40;;
75209;SDS011;63796;53.136;14.882;2023-04-28T11:39:53;3.40;;;2.40;;
75209;SDS011;63796;53.136;14.882;2023-04-28T11:42:21;3.00;;;2.00;;
75209;SDS011;63796;53.136;14.882;2023-04-28T11:44:49;2.90;;;2.00;;
75209;SDS011;63796;53.136;14.882;2023-04-28T11:47:30;4.10;;;2.80;;
75209;SDS011;63796;53.136;14.882;2023-04-28T11:49:59;2.90;;;2.60;;
75209;SDS011;63796;53.136;14.882;2023-04-28T11:52:28;3.10;;;2.30;;
75209;SDS011;63796;53.136;14.882;2023-04-28T11:54:57;7.60;;;2.50;;
75209;SDS011;63796;53.136;14.882;2023-04-28T11:57:26;2.80;;;2.00;;
75209;SDS011;63796;53.136;14.882;2023-04-28T12:00:11;2.80;;;2.50;;
75209;SDS011;63796;53.136;14.882;2023-04-28T12:02:40;4.20;;;2.40;;
75209;SDS011;63796;53.136;14.882;2023-04-28T12:05:08;4.70;;;2.70;;
75209;SDS011;63796;53.136;14.882;2023-04-28T12:07:40;4.70;;;2.90;;
75209;SDS011;63796;53.136;14.882;2023-04-28T12:10:13;4.40;;;3.20;;
75209;SDS011;63796;53.136;14.882;2023-04-28T12:12:45;5.70;;;3.10;;
75209;SDS011;63796;53.136;14.882;2023-04-28T12:15:20;3.40;;;2.50;;
75209;SDS011;63796;53.136;14.882;2023-04-28T12:17:49;4.40;;;2.70;;
75209;SDS011;63796;53.136;14.882;2023-04-28T12:20:34;8.90;;;2.60;;
75209;SDS011;63796;53.136;14.882;2023-04-28T12:23:02;4.80;;;2.20;;
75209;SDS011;63796;53.136;14.882;2023-04-28T12:25:30;7.30;;;2.70;;
75209;SDS011;63796;53.136;14.882;2023-04-28T12:28:06;4.30;;;2.20;;
75209;SDS011;63796;53.136;14.882;2023-04-28T12:30:36;3.90;;;2.50;;
75209;SDS011;63796;53.136;14.882;2023-04-28T12:33:26;3.70;;;2.20;;
75209;SDS011;63796;53.136;14.882;2023-04-28T12:35:55;8.50;;;2.40;;
75209;SDS011;63796;53.136;14.882;2023-04-28T12:38:25;3.50;;;2.10;;
75209;SDS011;63796;53.136;14.882;2023-04-28T12:40:52;5.80;;;2.80;;
75209;SDS011;63796;53.136;14.882;2023-04-28T12:43:20;2.90;;;2.00;;
75209;SDS011;63796;53.136;14.882;2023-04-28T12:45:50;3.80;;;2.00;;
75209;SDS011;63796;53.136;14.882;2023-04-28T12:48:20;5.10;;;2.90;;
75209;SDS011;63796;53.136;14.882;2023-04-28T12:50:48;5.80;;;2.40;;
75209;SDS011;63796;53.136;14.882;2023-04-28T12:53:15;6.60;;;4.20;;
75209;SDS011;63796;53.136;14.882;2023-04-28T12:55:43;5.30;;;2.90;;
75209;SDS011;63796;53.136;14.882;2023-04-28T12:58:10;5.80;;;2.50;;
75209;SDS011;63796;53.136;14.882;2023-04-28T13:00:37;5.60;;;2.70;;
75209;SDS011;63796;53.136;14.882;2023-04-28T13:03:05;5.40;;;2.70;;
75209;SDS011;63796;53.136;14.882;2023-04-28T13:05:33;5.80;;;2.60;;
75209;SDS011;63796;53.136;14.882;2023-04-28T13:08:01;7.00;;;2.50;;
75209;SDS011;63796;53.136;14.882;2023-04-28T13:10:28;4.80;;;2.50;;
75209;SDS011;63796;53.136;14.882;2023-04-28T13:12:56;6.10;;;2.60;;
75209;SDS011;63796;53.136;14.882;2023-04-28T13:15:23;5.10;;;2.80;;
75209;SDS011;63796;53.136;14.882;2023-04-28T13:17:50;6.50;;;2.70;;
75209;SDS011;63796;53.136;14.882;2023-04-28T13:20:18;5.30;;;2.80;;
75209;SDS011;63796;53.136;14.882;2023-04-28T13:22:45;4.50;;;2.50;;
75209;SDS011;63796;53.136;14.882;2023-04-28T13:25:12;6.70;;;3.00;;
75209;SDS011;63796;53.136;14.882;2023-04-28T13:27:40;6.10;;;2.60;;
75209;SDS011;63796;53.136;14.882;2023-04-28T13:30:10;6.00;;;2.80;;
75209;SDS011;63796;53.136;14.882;2023-04-28T13:32:37;8.30;;;3.70;;
75209;SDS011;63796;53.136;14.882;2023-04-28T13:35:05;7.30;;;3.10;;
75209;SDS011;63796;53.136;14.882;2023-04-28T13:37:33;7.30;;;2.70;;
75209;SDS011;63796;53.136;14.882;2023-04-28T13:40:01;8.30;;;3.50;;
75209;SDS011;63796;53.136;14.882;2023-04-28T13:42:30;7.70;;;3.30;;
75209;SDS011;63796;53.136;14.882;2023-04-28T13:44:57;7.60;;;2.90;;
75209;SDS011;63796;53.136;14.882;2023-04-28T13:47:25;8.10;;;3.60;;
75209;SDS011;63796;53.136;14.882;2023-04-28T13:49:52;7.70;;;3.20;;
75209;SDS011;63796;53.136;14.882;2023-04-28T13:52:20;6.10;;;2.50;;
75209;SDS011;63796;53.136;14.882;2023-04-28T13:54:48;6.30;;;3.40;;
75209;SDS011;63796;53.136;14.882;2023-04-28T13:57:16;5.20;;;3.10;;
75209;SDS011;63796;53.136;14.882;2023-04-28T13:59:43;8.00;;;3.80;;
75209;SDS011;63796;53.136;14.882;2023-04-28T14:02:11;9.40;;;3.50;;
75209;SDS011;63796;53.136;14.882;2023-04-28T14:04:38;6.60;;;3.40;;
75209;SDS011;63796;53.136;14.882;2023-04-28T14:07:06;6.80;;;3.30;;
75209;SDS011;63796;53.136;14.882;2023-04-28T14:09:34;8.50;;;3.10;;
75209;SDS011;63796;53.136;14.882;2023-04-28T14:12:01;5.50;;;2.80;;
75209;SDS011;63796;53.136;14.882;2023-04-28T14:14:28;5.70;;;3.10;;
75209;SDS011;63796;53.136;14.882;2023-04-28T14:16:56;6.20;;;3.60;;
75209;SDS011;63796;53.136;14.882;2023-04-28T14:19:24;7.90;;;3.40;;
75209;SDS011;63796;53.136;14.882;2023-04-28T14:21:53;6.90;;;3.60;;
75209;SDS011;63796;53.136;14.882;2023-04-28T14:24:20;6.80;;;2.70;;
75209;SDS011;63796;53.136;14.882;2023-04-28T14:26:47;7.30;;;3.60;;
75209;SDS011;63796;53.136;14.882;2023-04-28T14:29:15;11.10;;;3.90;;
75209;SDS011;63796;53.136;14.882;2023-04-28T14:31:42;7.50;;;3.00;;
75209;SDS011;63796;53.136;14.882;2023-04-28T14:34:10;7.90;;;3.20;;
75209;SDS011;63796;53.136;14.882;2023-04-28T14:36:37;6.80;;;3.50;;
75209;SDS011;63796;53.136;14.882;2023-04-28T14:39:05;4.60;;;3.00;;
75209;SDS011;63796;53.136;14.882;2023-04-28T14:41:32;5.40;;;2.50;;
75209;SDS011;63796;53.136;14.882;2023-04-28T14:43:59;7.00;;;2.70;;
75209;SDS011;63796;53.136;14.882;2023-04-28T14:46:27;6.50;;;2.90;;
75209;SDS011;63796;53.136;14.882;2023-04-28T14:48:55;7.40;;;3.00;;
75209;SDS011;63796;53.136;14.882;2023-04-28T14:51:24;9.20;;;3.30;;
75209;SDS011;63796;53.136;14.882;2023-04-28T14:53:52;6.50;;;3.40;;
75209;SDS011;63796;53.136;14.882;2023-04-28T14:56:19;7.50;;;3.70;;
75209;SDS011;63796;53.136;14.882;2023-04-28T14:58:46;11.30;;;3.90;;
75209;SDS011;63796;53.136;14.882;2023-04-28T15:01:15;5.90;;;3.10;;
75209;SDS011;63796;53.136;14.882;2023-04-28T15:03:43;11.50;;;3.10;;